sensor_id;sensor_type;location;lat;lon;timestamp;pressure;altitude;pressure_sealevel;temperature;humidity
51259;BME280;37327;54.254;18.504;2022-08-01T00:02:27;100672.13;;;14.26;91.20
51259;BME280;37327;54.254;18.504;2022-08-01T00:05:37;100673.77;;;14.27;91.09
51259;BME280;37327;54.254;18.504;2022-08-01T00:09:08;100667.13;;;14.30;91.39
51259;BME280;37327;54.254;18.504;2022-08-01T00:12:17;100658.98;;;14.30;91.88
51259;BME280;37327;54.254;18.504;2022-08-01T00:15:26;100656.27;;;14.30;92.02
51259;BME280;37327;54.254;18.504;2022-08-01T00:18:41;100655.40;;;14.29;92.27
51259;BME280;37327;54.254;18.504;2022-08-01T00:21:52;100651.02;;;14.28;92.09
51259;BME280;37327;54.254;18.504;2022-08-01T00:25:05;100660.42;;;14.26;92.31
51259;BME280;37327;54.254;18.504;2022-08-01T00:28:14;100657.27;;;14.22;92.11
51259;BME280;37327;54.254;18.504;2022-08-01T00:31:27;100651.41;;;14.18;92.20
51259;BME280;37327;54.254;18.504;2022-08-01T00:34:39;100654.12;;;14.18;92.24
51259;BME280;37327;54.254;18.504;2022-08-01T00:37:50;100647.63;;;14.19;92.79
51259;BME280;37327;54.254;18.504;2022-08-01T00:41:04;100643.26;;;14.18;93.27
51259;BME280;37327;54.254;18.504;2022-08-01T00:44:15;100641.57;;;14.17;93.14
51259;BME280;37327;54.254;18.504;2022-08-01T00:47:29;100638.02;;;14.17;92.97
51259;BME280;37327;54.254;18.504;2022-08-01T00:50:41;100636.56;;;14.14;93.17
51259;BME280;37327;54.254;18.504;2022-08-01T00:53:51;100646.79;;;14.12;93.05
51259;BME280;37327;54.254;18.504;2022-08-01T00:56:59;100642.38;;;14.11;93.05
51259;BME280;37327;54.254;18.504;2022-08-01T01:00:14;100635.49;;;14.09;93.21
51259;BME280;37327;54.254;18.504;2022-08-01T01:03:30;100636.51;;;14.08;93.23
51259;BME280;37327;54.254;18.504;2022-08-01T01:06:54;100638.15;;;14.02;93.45
51259;BME280;37327;54.254;18.504;2022-08-01T01:10:12;100645.66;;;14.00;93.26
51259;BME280;37327;54.254;18.504;2022-08-01T01:16:45;100637.94;;;13.97;93.37
51259;BME280;37327;54.254;18.504;2022-08-01T01:19:57;100645.45;;;13.95;92.96
51259;BME280;37327;54.254;18.504;2022-08-01T01:29:49;100635.61;;;13.94;93.15
51259;BME280;37327;54.254;18.504;2022-08-01T01:33:00;100637.30;;;13.95;93.02
51259;BME280;37327;54.254;18.504;2022-08-01T01:36:14;100631.23;;;13.93;93.17
51259;BME280;37327;54.254;18.504;2022-08-01T01:39:28;100627.66;;;13.92;93.33
51259;BME280;37327;54.254;18.504;2022-08-01T01:42:41;100626.01;;;13.91;93.53
51259;BME280;37327;54.254;18.504;2022-08-01T01:45:53;100632.27;;;13.92;93.63
51259;BME280;37327;54.254;18.504;2022-08-01T01:49:09;100615.98;;;13.92;93.78
51259;BME280;37327;54.254;18.504;2022-08-01T01:52:22;100616.17;;;13.90;94.02
51259;BME280;37327;54.254;18.504;2022-08-01T01:55:36;100632.68;;;13.89;93.85
51259;BME280;37327;54.254;18.504;2022-08-01T01:58:51;100620.97;;;13.88;94.05
51259;BME280;37327;54.254;18.504;2022-08-01T02:02:07;100629.11;;;13.88;94.36
51259;BME280;37327;54.254;18.504;2022-08-01T02:05:16;100620.97;;;13.88;94.36
51259;BME280;37327;54.254;18.504;2022-08-01T02:08:47;100625.56;;;13.88;94.56
51259;BME280;37327;54.254;18.504;2022-08-01T02:11:54;100619.11;;;13.89;94.51
51259;BME280;37327;54.254;18.504;2022-08-01T02:15:11;100623.91;;;13.87;94.78
51259;BME280;37327;54.254;18.504;2022-08-01T02:18:22;100620.97;;;13.88;94.48
51259;BME280;37327;54.254;18.504;2022-08-01T02:21:44;100625.56;;;13.88;94.65
51259;BME280;37327;54.254;18.504;2022-08-01T02:28:17;100624.93;;;13.86;93.93
51259;BME280;37327;54.254;18.504;2022-08-01T02:31:39;100620.55;;;13.85;93.96
51259;BME280;37327;54.254;18.504;2022-08-01T02:34:55;100613.83;;;13.80;93.81
51259;BME280;37327;54.254;18.504;2022-08-01T02:38:09;100617.59;;;13.79;94.22
51259;BME280;37327;54.254;18.504;2022-08-01T02:41:20;100621.33;;;13.78;93.79
51259;BME280;37327;54.254;18.504;2022-08-01T02:44:34;100621.33;;;13.78;94.08
51259;BME280;37327;54.254;18.504;2022-08-01T02:47:41;100621.33;;;13.78;93.64
51259;BME280;37327;54.254;18.504;2022-08-01T02:50:55;100623.02;;;13.79;93.44
51259;BME280;37327;54.254;18.504;2022-08-01T02:54:02;100623.02;;;13.79;93.31
51259;BME280;37327;54.254;18.504;2022-08-01T02:57:08;100621.33;;;13.78;93.45
51259;BME280;37327;54.254;18.504;2022-08-01T03:00:15;100620.50;;;13.78;93.48
51259;BME280;37327;54.254;18.504;2022-08-01T03:03:22;100624.27;;;13.77;93.30
51259;BME280;37327;54.254;18.504;2022-08-01T03:06:34;100624.27;;;13.77;93.31
51259;BME280;37327;54.254;18.504;2022-08-01T03:09:45;100624.91;;;13.79;93.45
51259;BME280;37327;54.254;18.504;2022-08-01T03:12:53;100623.02;;;13.79;93.30
51259;BME280;37327;54.254;18.504;2022-08-01T03:16:01;100620.94;;;13.81;93.32
51259;BME280;37327;54.254;18.504;2022-08-01T03:19:19;100618.04;;;13.83;93.04
51259;BME280;37327;54.254;18.504;2022-08-01T03:22:29;100620.55;;;13.85;92.84
51259;BME280;37327;54.254;18.504;2022-08-01T03:25:39;100615.13;;;13.85;93.29
51259;BME280;37327;54.254;18.504;2022-08-01T03:28:44;100615.76;;;13.87;93.04
51259;BME280;37327;54.254;18.504;2022-08-01T03:31:59;100618.24;;;13.88;93.37
51259;BME280;37327;54.254;18.504;2022-08-01T03:35:08;100622.46;;;13.91;93.51
51259;BME280;37327;54.254;18.504;2022-08-01T03:38:41;100624.76;;;13.94;93.83
51259;BME280;37327;54.254;18.504;2022-08-01T03:42:01;100629.59;;;13.98;93.65
51259;BME280;37327;54.254;18.504;2022-08-01T03:45:19;100633.36;;;14.04;93.74
51259;BME280;37327;54.254;18.504;2022-08-01T03:48:30;100628.17;;;14.09;93.55
51259;BME280;37327;54.254;18.504;2022-08-01T03:51:48;100626.73;;;14.13;93.76
51259;BME280;37327;54.254;18.504;2022-08-01T03:55:07;100634.06;;;14.19;93.46
51259;BME280;37327;54.254;18.504;2022-08-01T03:58:19;100631.58;;;14.25;93.36
51259;BME280;37327;54.254;18.504;2022-08-01T04:01:31;100631.59;;;14.31;93.18
51259;BME280;37327;54.254;18.504;2022-08-01T04:04:42;100633.72;;;14.36;93.09
51259;BME280;37327;54.254;18.504;2022-08-01T04:07:54;100624.95;;;14.40;93.32
51259;BME280;37327;54.254;18.504;2022-08-01T04:11:12;100624.36;;;14.45;92.74
51259;BME280;37327;54.254;18.504;2022-08-01T04:14:23;100632.52;;;14.52;93.03
51259;BME280;37327;54.254;18.504;2022-08-01T04:17:37;100630.90;;;14.57;93.18
51259;BME280;37327;54.254;18.504;2022-08-01T04:20:49;100624.84;;;14.62;92.92
51259;BME280;37327;54.254;18.504;2022-08-01T04:24:23;100625.26;;;14.66;92.47
51259;BME280;37327;54.254;18.504;2022-08-01T04:27:38;100626.52;;;14.70;92.69
51259;BME280;37327;54.254;18.504;2022-08-01T04:30:46;100626.13;;;14.73;92.21
51259;BME280;37327;54.254;18.504;2022-08-01T04:33:54;100625.69;;;14.76;92.36
51259;BME280;37327;54.254;18.504;2022-08-01T04:37:09;100628.84;;;14.79;92.32
51259;BME280;37327;54.254;18.504;2022-08-01T04:40:14;100631.99;;;14.83;91.42
51259;BME280;37327;54.254;18.504;2022-08-01T04:43:22;100626.77;;;14.88;91.86
51259;BME280;37327;54.254;18.504;2022-08-01T04:46:31;100626.34;;;14.91;91.59
51259;BME280;37327;54.254;18.504;2022-08-01T04:49:43;100626.97;;;14.93;91.53
51259;BME280;37327;54.254;18.504;2022-08-01T04:52:55;100624.88;;;14.95;91.32
51259;BME280;37327;54.254;18.504;2022-08-01T04:56:04;100630.95;;;14.97;91.29
51259;BME280;37327;54.254;18.504;2022-08-01T04:59:40;100629.09;;;14.98;91.26
51259;BME280;37327;54.254;18.504;2022-08-01T05:02:53;100633.47;;;14.99;91.33
51259;BME280;37327;54.254;18.504;2022-08-01T05:06:07;100635.77;;;15.02;91.21
51259;BME280;37327;54.254;18.504;2022-08-01T05:09:16;100640.16;;;15.03;91.05
51259;BME280;37327;54.254;18.504;2022-08-01T05:12:26;100646.22;;;15.05;90.89
51259;BME280;37327;54.254;18.504;2022-08-01T05:15:55;100639.55;;;15.08;90.94
51259;BME280;37327;54.254;18.504;2022-08-01T05:19:01;100646.45;;;15.10;90.97
51259;BME280;37327;54.254;18.504;2022-08-01T05:22:12;100641.44;;;15.14;90.70
51259;BME280;37327;54.254;18.504;2022-08-01T05:25:31;100642.68;;;15.18;90.57
51259;BME280;37327;54.254;18.504;2022-08-01T05:28:43;100637.88;;;15.20;90.34
51259;BME280;37327;54.254;18.504;2022-08-01T05:31:52;100646.45;;;15.24;90.09
51259;BME280;37327;54.254;18.504;2022-08-01T05:35:04;100632.22;;;15.28;89.97
51259;BME280;37327;54.254;18.504;2022-08-01T05:38:13;100625.09;;;15.34;89.75
51259;BME280;37327;54.254;18.504;2022-08-01T05:41:44;100637.03;;;15.39;89.50
51259;BME280;37327;54.254;18.504;2022-08-01T05:44:57;100636.18;;;15.46;89.08
51259;BME280;37327;54.254;18.504;2022-08-01T05:48:03;100639.13;;;15.51;88.66
51259;BME280;37327;54.254;18.504;2022-08-01T05:51:09;100633.24;;;15.54;88.44
51259;BME280;37327;54.254;18.504;2022-08-01T05:54:18;100629.28;;;15.56;88.41
51259;BME280;37327;54.254;18.504;2022-08-01T05:57:24;100634.28;;;15.59;87.77
51259;BME280;37327;54.254;18.504;2022-08-01T06:00:31;100638.88;;;15.66;87.75
51259;BME280;37327;54.254;18.504;2022-08-01T06:03:47;100634.70;;;15.76;87.68
51259;BME280;37327;54.254;18.504;2022-08-01T06:07:19;100633.82;;;15.96;87.45
51259;BME280;37327;54.254;18.504;2022-08-01T06:10:31;100625.77;;;16.14;87.25
51259;BME280;37327;54.254;18.504;2022-08-01T06:13:41;100634.10;;;16.33;87.26
51259;BME280;37327;54.254;18.504;2022-08-01T06:16:47;100622.06;;;16.47;86.47
51259;BME280;37327;54.254;18.504;2022-08-01T06:19:55;100628.07;;;16.63;86.35
51259;BME280;37327;54.254;18.504;2022-08-01T06:23:00;100622.09;;;16.79;85.82
51259;BME280;37327;54.254;18.504;2022-08-01T06:26:32;100618.90;;;16.89;85.15
51259;BME280;37327;54.254;18.504;2022-08-01T06:29:45;100626.19;;;16.95;84.30
51259;BME280;37327;54.254;18.504;2022-08-01T06:32:55;100625.55;;;17.00;83.43
51259;BME280;37327;54.254;18.504;2022-08-01T06:36:06;100623.09;;;17.16;83.31
51259;BME280;37327;54.254;18.504;2022-08-01T06:39:12;100618.20;;;17.25;82.21
51259;BME280;37327;54.254;18.504;2022-08-01T06:42:23;100625.66;;;17.36;82.00
51259;BME280;37327;54.254;18.504;2022-08-01T06:45:32;100617.20;;;17.45;81.92
51259;BME280;37327;54.254;18.504;2022-08-01T06:49:08;100622.30;;;17.60;80.94
51259;BME280;37327;54.254;18.504;2022-08-01T06:52:14;100620.88;;;17.75;80.32
51259;BME280;37327;54.254;18.504;2022-08-01T06:55:30;100624.93;;;17.91;78.92
51259;BME280;37327;54.254;18.504;2022-08-01T07:02:02;100625.29;;;18.13;75.91
51259;BME280;37327;54.254;18.504;2022-08-01T07:05:16;100624.54;;;18.25;75.12
51259;BME280;37327;54.254;18.504;2022-08-01T07:08:26;100618.52;;;18.34;73.52
51259;BME280;37327;54.254;18.504;2022-08-01T07:11:57;100625.94;;;18.46;70.89
51259;BME280;37327;54.254;18.504;2022-08-01T07:15:13;100630.85;;;18.55;70.07
51259;BME280;37327;54.254;18.504;2022-08-01T07:18:30;100628.16;;;18.67;68.85
51259;BME280;37327;54.254;18.504;2022-08-01T07:21:41;100623.42;;;18.74;68.21
51259;BME280;37327;54.254;18.504;2022-08-01T07:25:02;100616.95;;;18.87;69.24
51259;BME280;37327;54.254;18.504;2022-08-01T07:28:15;100631.02;;;19.03;68.58
51259;BME280;37327;54.254;18.504;2022-08-01T07:31:28;100622.47;;;19.11;66.27
51259;BME280;37327;54.254;18.504;2022-08-01T07:34:41;100617.24;;;19.21;65.16
51259;BME280;37327;54.254;18.504;2022-08-01T07:37:51;100616.66;;;19.31;64.17
51259;BME280;37327;54.254;18.504;2022-08-01T07:41:07;100614.28;;;19.34;63.79
51259;BME280;37327;54.254;18.504;2022-08-01T07:44:16;100615.97;;;19.47;63.06
51259;BME280;37327;54.254;18.504;2022-08-01T07:47:28;100621.90;;;19.56;61.26
51259;BME280;37327;54.254;18.504;2022-08-01T07:50:40;100613.91;;;19.66;60.97
51259;BME280;37327;54.254;18.504;2022-08-01T07:53:51;100613.83;;;19.73;59.83
51259;BME280;37327;54.254;18.504;2022-08-01T07:57:23;100623.69;;;19.86;56.60
51259;BME280;37327;54.254;18.504;2022-08-01T08:00:32;100617.27;;;19.92;55.90
51259;BME280;37327;54.254;18.504;2022-08-01T08:03:40;100615.21;;;19.99;55.49
51259;BME280;37327;54.254;18.504;2022-08-01T08:06:57;100614.83;;;20.07;54.62
51259;BME280;37327;54.254;18.504;2022-08-01T08:10:10;100615.05;;;20.18;55.11
51259;BME280;37327;54.254;18.504;2022-08-01T08:13:21;100615.26;;;20.28;55.69
51259;BME280;37327;54.254;18.504;2022-08-01T08:16:28;100613.21;;;20.35;53.76
51259;BME280;37327;54.254;18.504;2022-08-01T08:19:43;100628.10;;;20.39;52.24
51259;BME280;37327;54.254;18.504;2022-08-01T08:22:53;100616.50;;;20.49;52.44
51259;BME280;37327;54.254;18.504;2022-08-01T08:26:22;100628.03;;;20.63;48.16
51259;BME280;37327;54.254;18.504;2022-08-01T08:29:38;100612.45;;;20.80;48.95
51259;BME280;37327;54.254;18.504;2022-08-01T08:32:45;100607.38;;;21.06;48.93
51259;BME280;37327;54.254;18.504;2022-08-01T08:35:56;100615.54;;;21.35;49.64
51259;BME280;37327;54.254;18.504;2022-08-01T08:39:07;100616.20;;;21.59;50.24
51259;BME280;37327;54.254;18.504;2022-08-01T08:42:25;100615.20;;;21.87;48.03
51259;BME280;37327;54.254;18.504;2022-08-01T08:45:41;100615.10;;;22.21;49.06
51259;BME280;37327;54.254;18.504;2022-08-01T08:48:55;100614.46;;;22.58;48.75
51259;BME280;37327;54.254;18.504;2022-08-01T08:52:06;100610.59;;;22.86;46.85
51259;BME280;37327;54.254;18.504;2022-08-01T08:55:17;100611.06;;;23.05;47.48
51259;BME280;37327;54.254;18.504;2022-08-01T08:58:33;100616.39;;;23.17;45.45
51259;BME280;37327;54.254;18.504;2022-08-01T09:04:35;100612.66;;;23.01;43.94
51259;BME280;37327;54.254;18.504;2022-08-01T09:07:48;100620.77;;;22.85;44.27
51259;BME280;37327;54.254;18.504;2022-08-01T09:10:54;100615.10;;;22.97;44.85
51259;BME280;37327;54.254;18.504;2022-08-01T09:21:17;100621.02;;;23.49;43.31
51259;BME280;37327;54.254;18.504;2022-08-01T09:24:27;100616.48;;;23.70;42.70
51259;BME280;37327;54.254;18.504;2022-08-01T09:27:33;100628.15;;;23.82;43.19
51259;BME280;37327;54.254;18.504;2022-08-01T09:30:43;100618.13;;;23.65;43.54
51259;BME280;37327;54.254;18.504;2022-08-01T09:34:01;100623.27;;;23.52;43.79
51259;BME280;37327;54.254;18.504;2022-08-01T09:37:14;100624.28;;;23.40;43.03
51259;BME280;37327;54.254;18.504;2022-08-01T09:43:51;100612.02;;;23.21;43.47
51259;BME280;37327;54.254;18.504;2022-08-01T09:47:06;100611.49;;;23.66;42.68
51259;BME280;37327;54.254;18.504;2022-08-01T09:50:20;100620.91;;;24.29;43.00
51259;BME280;37327;54.254;18.504;2022-08-01T09:56:52;100612.52;;;25.07;41.05
51259;BME280;37327;54.254;18.504;2022-08-01T10:00:05;100626.87;;;24.83;40.20
51259;BME280;37327;54.254;18.504;2022-08-01T10:03:27;100627.87;;;24.41;40.30
51259;BME280;37327;54.254;18.504;2022-08-01T10:06:39;100624.20;;;24.20;40.20
51259;BME280;37327;54.254;18.504;2022-08-01T10:09:50;100625.02;;;24.21;40.01
51259;BME280;37327;54.254;18.504;2022-08-01T10:13:04;100620.70;;;24.46;39.06
51259;BME280;37327;54.254;18.504;2022-08-01T10:16:43;100619.13;;;24.75;38.03
51259;BME280;37327;54.254;18.504;2022-08-01T10:19:50;100621.38;;;25.04;37.52
51259;BME280;37327;54.254;18.504;2022-08-01T10:23:11;100618.08;;;25.22;37.92
51259;BME280;37327;54.254;18.504;2022-08-01T10:26:19;100614.16;;;25.54;38.55
51259;BME280;37327;54.254;18.504;2022-08-01T10:29:36;100610.34;;;25.45;37.10
51259;BME280;37327;54.254;18.504;2022-08-01T10:32:41;100614.76;;;25.36;37.87
51259;BME280;37327;54.254;18.504;2022-08-01T10:35:57;100618.63;;;25.19;38.93
51259;BME280;37327;54.254;18.504;2022-08-01T10:39:11;100615.27;;;24.71;38.79
51259;BME280;37327;54.254;18.504;2022-08-01T10:42:22;100618.27;;;24.54;40.46
51259;BME280;37327;54.254;18.504;2022-08-01T10:45:34;100616.88;;;24.52;40.62
51259;BME280;37327;54.254;18.504;2022-08-01T10:51:56;100611.59;;;24.50;41.07
51259;BME280;37327;54.254;18.504;2022-08-01T10:55:08;100617.97;;;24.51;41.53
51259;BME280;37327;54.254;18.504;2022-08-01T10:58:30;100614.13;;;24.52;41.40
51259;BME280;37327;54.254;18.504;2022-08-01T11:01:55;100613.02;;;24.58;40.36
51259;BME280;37327;54.254;18.504;2022-08-01T11:05:09;100618.27;;;24.54;38.72
51259;BME280;37327;54.254;18.504;2022-08-01T11:08:22;100610.80;;;24.55;38.43
51259;BME280;37327;54.254;18.504;2022-08-01T11:11:28;100614.41;;;24.55;38.61
51259;BME280;37327;54.254;18.504;2022-08-01T11:28:26;100621.58;;;24.56;40.00
51259;BME280;37327;54.254;18.504;2022-08-01T11:31:37;100614.42;;;24.66;39.86
51259;BME280;37327;54.254;18.504;2022-08-01T11:34:53;100622.99;;;24.69;40.22
51259;BME280;37327;54.254;18.504;2022-08-01T11:44:50;100620.23;;;24.74;40.65
51259;BME280;37327;54.254;18.504;2022-08-01T11:47:55;100618.61;;;24.89;39.63
51259;BME280;37327;54.254;18.504;2022-08-01T11:51:26;100625.23;;;24.93;39.14
51259;BME280;37327;54.254;18.504;2022-08-01T11:58:00;100623.84;;;24.85;38.15
51259;BME280;37327;54.254;18.504;2022-08-01T12:01:19;100627.16;;;24.97;37.96
51259;BME280;37327;54.254;18.504;2022-08-01T12:05:18;100622.20;;;25.20;41.63
51259;BME280;37327;54.254;18.504;2022-08-01T12:07:53;100624.68;;;25.16;43.43
51259;BME280;37327;54.254;18.504;2022-08-01T12:11:02;100625.23;;;25.18;43.95
51259;BME280;37327;54.254;18.504;2022-08-01T12:14:20;100623.02;;;25.05;44.18
51259;BME280;37327;54.254;18.504;2022-08-01T12:17:37;100620.83;;;25.17;44.54
51259;BME280;37327;54.254;18.504;2022-08-01T12:20:52;100613.66;;;25.27;45.04
51259;BME280;37327;54.254;18.504;2022-08-01T12:24:03;100615.86;;;25.35;45.29
51259;BME280;37327;54.254;18.504;2022-08-01T12:27:08;100614.20;;;25.34;44.49
51259;BME280;37327;54.254;18.504;2022-08-01T12:30:15;100612.02;;;25.26;43.90
51259;BME280;37327;54.254;18.504;2022-08-01T12:33:20;100623.02;;;25.05;44.28
51259;BME280;37327;54.254;18.504;2022-08-01T12:36:28;100620.52;;;24.83;45.27
51259;BME280;37327;54.254;18.504;2022-08-01T12:39:42;100625.48;;;24.76;45.09
51259;BME280;37327;54.254;18.504;2022-08-01T12:42:59;100625.75;;;24.69;45.01
51259;BME280;37327;54.254;18.504;2022-08-01T12:46:12;100626.02;;;24.57;44.41
51259;BME280;37327;54.254;18.504;2022-08-01T12:49:27;100627.92;;;24.52;45.17
51259;BME280;37327;54.254;18.504;2022-08-01T12:52:38;100624.55;;;24.44;45.64
51259;BME280;37327;54.254;18.504;2022-08-01T12:55:55;100636.70;;;24.43;46.46
51259;BME280;37327;54.254;18.504;2022-08-01T13:02:37;100641.09;;;24.34;47.74
51259;BME280;37327;54.254;18.504;2022-08-01T13:09:22;100633.30;;;24.21;48.60
51259;BME280;37327;54.254;18.504;2022-08-01T13:12:33;100635.95;;;23.95;49.69
51259;BME280;37327;54.254;18.504;2022-08-01T13:19:18;100638.70;;;23.95;51.83
51259;BME280;37327;54.254;18.504;2022-08-01T13:22:36;100643.70;;;23.98;51.50
51259;BME280;37327;54.254;18.504;2022-08-01T13:25:50;100644.47;;;23.89;51.03
51259;BME280;37327;54.254;18.504;2022-08-01T13:29:05;100652.39;;;23.80;50.93
51259;BME280;37327;54.254;18.504;2022-08-01T13:32:16;100640.74;;;23.73;51.77
51259;BME280;37327;54.254;18.504;2022-08-01T13:35:23;100651.77;;;23.73;52.42
51259;BME280;37327;54.254;18.504;2022-08-01T13:38:38;100655.72;;;23.82;52.72
51259;BME280;37327;54.254;18.504;2022-08-01T13:42:00;100662.27;;;23.76;51.81
51259;BME280;37327;54.254;18.504;2022-08-01T13:45:14;100656.76;;;23.76;51.75
51259;BME280;37327;54.254;18.504;2022-08-01T13:48:26;100669.50;;;23.82;52.78
51259;BME280;37327;54.254;18.504;2022-08-01T13:51:39;100660.14;;;23.83;53.33
51259;BME280;37327;54.254;18.504;2022-08-01T13:54:56;100657.52;;;23.66;53.01
51259;BME280;37327;54.254;18.504;2022-08-01T13:58:11;100664.31;;;23.53;53.32
51259;BME280;37327;54.254;18.504;2022-08-01T14:01:24;100672.81;;;23.46;52.98
51259;BME280;37327;54.254;18.504;2022-08-01T14:04:57;100661.27;;;23.50;53.82
51259;BME280;37327;54.254;18.504;2022-08-01T14:08:07;100671.42;;;23.44;53.21
51259;BME280;37327;54.254;18.504;2022-08-01T14:11:14;100671.06;;;23.35;54.36
51259;BME280;37327;54.254;18.504;2022-08-01T14:14:29;100668.62;;;23.39;54.76
51259;BME280;37327;54.254;18.504;2022-08-01T14:17:41;100666.50;;;23.51;55.10
51259;BME280;37327;54.254;18.504;2022-08-01T14:20:55;100675.05;;;23.50;55.28
51259;BME280;37327;54.254;18.504;2022-08-01T14:24:08;100679.12;;;23.42;55.78
51259;BME280;37327;54.254;18.504;2022-08-01T14:27:21;100679.12;;;23.42;55.87
51259;BME280;37327;54.254;18.504;2022-08-01T14:30:35;100679.64;;;23.39;56.60
51259;BME280;37327;54.254;18.504;2022-08-01T14:33:49;100679.32;;;23.35;56.90
51259;BME280;37327;54.254;18.504;2022-08-01T14:37:01;100685.87;;;23.24;57.29
51259;BME280;37327;54.254;18.504;2022-08-01T14:40:15;100694.74;;;23.04;57.87
51259;BME280;37327;54.254;18.504;2022-08-01T14:43:27;100695.09;;;22.85;58.29
51259;BME280;37327;54.254;18.504;2022-08-01T14:46:37;100688.48;;;22.86;59.41
51259;BME280;37327;54.254;18.504;2022-08-01T14:49:50;100698.51;;;22.98;59.81
51259;BME280;37327;54.254;18.504;2022-08-01T14:53:02;100702.66;;;23.00;59.34
51259;BME280;37327;54.254;18.504;2022-08-01T14:56:11;100699.08;;;23.00;59.27
51259;BME280;37327;54.254;18.504;2022-08-01T14:59:45;100704.59;;;23.00;59.13
51259;BME280;37327;54.254;18.504;2022-08-01T15:03:02;100712.21;;;22.93;59.27
51259;BME280;37327;54.254;18.504;2022-08-01T15:06:14;100707.24;;;22.90;59.00
51259;BME280;37327;54.254;18.504;2022-08-01T15:09:28;100714.39;;;22.91;58.54
51259;BME280;37327;54.254;18.504;2022-08-01T15:12:37;100711.77;;;23.01;58.89
51259;BME280;37327;54.254;18.504;2022-08-01T15:16:07;100720.63;;;23.03;58.81
51259;BME280;37327;54.254;18.504;2022-08-01T15:19:30;100720.75;;;22.91;58.63
51259;BME280;37327;54.254;18.504;2022-08-01T15:22:42;100729.09;;;22.74;59.35
51259;BME280;37327;54.254;18.504;2022-08-01T15:25:56;100732.47;;;22.59;59.56
51259;BME280;37327;54.254;18.504;2022-08-01T15:29:07;100729.93;;;22.53;60.37
51259;BME280;37327;54.254;18.504;2022-08-01T15:32:26;100724.23;;;22.37;60.21
51259;BME280;37327;54.254;18.504;2022-08-01T15:35:36;100728.41;;;22.23;60.44
51259;BME280;37327;54.254;18.504;2022-08-01T15:38:50;100725.09;;;22.21;61.07
51259;BME280;37327;54.254;18.504;2022-08-01T15:42:05;100713.52;;;22.19;60.70
51259;BME280;37327;54.254;18.504;2022-08-01T15:45:13;100718.02;;;22.25;60.65
51259;BME280;37327;54.254;18.504;2022-08-01T15:48:29;100718.16;;;22.35;60.99
51259;BME280;37327;54.254;18.504;2022-08-01T15:51:46;100720.45;;;22.43;61.07
51259;BME280;37327;54.254;18.504;2022-08-01T15:55:04;100719.95;;;22.46;60.47
51259;BME280;37327;54.254;18.504;2022-08-01T15:58:19;100724.93;;;22.50;60.31
51259;BME280;37327;54.254;18.504;2022-08-01T16:04:54;100730.04;;;22.63;60.25
51259;BME280;37327;54.254;18.504;2022-08-01T16:08:09;100727.54;;;22.61;59.40
51259;BME280;37327;54.254;18.504;2022-08-01T16:11:21;100724.74;;;22.56;59.75
51259;BME280;37327;54.254;18.504;2022-08-01T16:14:37;100726.93;;;22.54;59.83
51259;BME280;37327;54.254;18.504;2022-08-01T16:18:08;100734.60;;;22.52;59.94
51259;BME280;37327;54.254;18.504;2022-08-01T16:21:17;100738.67;;;22.50;59.69
51259;BME280;37327;54.254;18.504;2022-08-01T16:24:34;100732.93;;;22.51;59.72
51259;BME280;37327;54.254;18.504;2022-08-01T16:27:46;100736.25;;;22.53;59.56
51259;BME280;37327;54.254;18.504;2022-08-01T16:30:59;100738.18;;;22.53;59.79
51259;BME280;37327;54.254;18.504;2022-08-01T16:34:11;100746.36;;;22.47;59.16
51259;BME280;37327;54.254;18.504;2022-08-01T16:37:27;100743.80;;;22.41;59.59
51259;BME280;37327;54.254;18.504;2022-08-01T16:40:45;100742.41;;;22.38;60.03
51259;BME280;37327;54.254;18.504;2022-08-01T16:44:02;100747.38;;;22.41;59.85
51259;BME280;37327;54.254;18.504;2022-08-01T16:47:19;100747.13;;;22.43;59.94
51259;BME280;37327;54.254;18.504;2022-08-01T16:50:26;100748.41;;;22.35;59.62
51259;BME280;37327;54.254;18.504;2022-08-01T16:53:37;100746.09;;;22.27;59.98
51259;BME280;37327;54.254;18.504;2022-08-01T16:56:49;100752.74;;;22.14;59.95
51259;BME280;37327;54.254;18.504;2022-08-01T16:59:58;100757.43;;;22.14;60.61
51259;BME280;37327;54.254;18.504;2022-08-01T17:03:11;100760.02;;;22.03;60.80
51259;BME280;37327;54.254;18.504;2022-08-01T17:06:25;100754.88;;;21.90;61.17
51259;BME280;37327;54.254;18.504;2022-08-01T17:09:37;100756.22;;;21.87;61.71
51259;BME280;37327;54.254;18.504;2022-08-01T17:12:49;100757.38;;;21.75;61.95
51259;BME280;37327;54.254;18.504;2022-08-01T17:15:59;100762.20;;;21.67;62.51
51259;BME280;37327;54.254;18.504;2022-08-01T17:19:29;100770.37;;;21.62;62.62
51259;BME280;37327;54.254;18.504;2022-08-01T17:22:36;100764.95;;;21.51;62.71
51259;BME280;37327;54.254;18.504;2022-08-01T17:25:48;100764.61;;;21.47;62.98
51259;BME280;37327;54.254;18.504;2022-08-01T17:29:05;100766.16;;;21.43;63.21
51259;BME280;37327;54.254;18.504;2022-08-01T17:32:14;100766.64;;;21.40;63.63
51259;BME280;37327;54.254;18.504;2022-08-01T17:39:12;100779.73;;;21.21;64.07
51259;BME280;37327;54.254;18.504;2022-08-01T17:42:22;100775.74;;;21.12;64.32
51259;BME280;37327;54.254;18.504;2022-08-01T17:45:41;100785.28;;;21.09;64.64
51259;BME280;37327;54.254;18.504;2022-08-01T17:48:51;100795.08;;;21.05;64.94
51259;BME280;37327;54.254;18.504;2022-08-01T17:52:00;100786.54;;;21.01;65.01
51259;BME280;37327;54.254;18.504;2022-08-01T17:55:29;100799.20;;;20.90;65.27
51259;BME280;37327;54.254;18.504;2022-08-01T17:58:35;100801.83;;;20.85;65.29